Date,TemperatureHighF,TemperatureAvgF,TemperatureLowF,DewpointHighF,DewpointAvgF,DewpointLowF,HumidityHigh,HumidityAvg,HumidityLow,PressureMaxIn,PressureMinIn,WindSpeedMaxMPH,WindSpeedAvgMPH,GustSpeedMaxMPH,PrecipitationSumIn
2012-1-3,68,51,35,0,0,0,39,26,15,30.36,30.26,6,4,6,0.00
2012-1-4,68,48,33,0,0,0,41,29,17,30.44,30.31,7,4,9,0.00
2012-1-5,70,49,36,0,0,0,41,29,16,30.31,30.06,7,3,8,0.00
2012-1-6,67,50,36,0,0,0,42,31,18,30.10,29.93,7,3,10,0.00
2012-1-7,62,49,36,0,0,0,50,31,15,30.20,29.95,22,6,24,0.00
2012-1-8,51,49,48,0,0,0,28,26,25,30.21,30.19,16,11,18,0.00
2012-1-15,65,55,47,0,0,0,53,31,13,29.97,29.87,28,20,35,0.00
2012-1-16,57,45,35,0,0,0,59,41,23,30.12,29.90,30,13,33,0.00
2012-1-17,37,30,24,0,0,0,64,55,44,30.20,30.12,12,4,14,0.00
2012-1-25,33,33,33,0,0,0,77,77,77,30.35,30.35,5,5,5,0.00
2012-1-27,63,56,42,0,0,0,71,31,18,30.27,30.14,17,7,23,0.00
2012-1-30,64,51,30,0,0,0,38,21,13,30.05,29.93,8,2,9,0.00
2012-1-31,66,53,40,0,0,0,37,24,14,30.13,29.91,13,3,14,0.00
2012-2-1,71,57,43,0,0,0,52,34,18,30.13,29.93,29,10,33,0.00
2012-2-2,61,51,34,0,0,0,57,30,16,30.08,29.98,17,5,18,0.00
2012-2-3,60,60,60,0,0,0,16,16,16,29.98,29.98,5,5,13,0.00
2012-2-4,60,60,60,0,0,0,16,16,16,29.98,29.98,5,5,13,0.00
2012-2-5,60,60,60,0,0,0,16,16,16,29.98,29.98,5,5,13,0.00
2012-2-6,60,60,60,0,0,0,16,16,16,29.98,29.98,5,5,13,0.00
2012-2-7,60,58,51,0,0,0,22,17,16,30.00,29.95,21,10,21,0.00
2012-2-8,64,59,51,0,0,0,54,28,16,30.21,29.95,12,5,22,0.00
2012-2-9,72,62,36,0,0,0,70,29,16,30.28,30.15,12,4,15,0.00
2012-2-10,77,65,39,0,0,0,51,24,12,30.16,29.93,25,11,28,0.00
2012-2-11,67,55,45,0,0,0,64,46,27,29.93,29.77,29,14,33,0.00
2012-2-12,67,52,42,0,0,0,63,44,20,29.92,29.81,24,11,26,0.00
2012-2-13,56,48,41,0,0,0,72,44,21,29.84,29.67,46,20,51,0.00
2012-2-14,62,47,35,0,0,0,65,43,21,29.94,29.78,23,10,23,0.00
2012-2-15,50,43,37,0,0,0,79,56,38,30.03,29.78,44,11,44,0.00
2012-2-16,60,47,0,0,0,0,52,27,17,30.17,30.02,24,8,24,0.00
2012-2-17,66,48,28,0,0,0,56,26,7,30.21,30.08,16,5,16,0.00
2012-2-18,46,44,41,0,0,0,36,32,27,30.10,30.07,12,7,12,0.00
2012-2-19,57,57,41,0,0,0,34,27,27,30.07,29.94,7,7,7,0.00
2012-2-20,57,57,57,0,0,0,27,27,27,29.94,29.94,7,7,7,0.00
2012-2-21,66,55,30,0,0,0,48,24,16,30.24,29.94,14,4,14,0.00
2012-2-22,77,57,38,0,0,0,50,28,12,30.21,29.95,14,4,14,0.00
2012-2-23,76,60,39,0,0,0,54,25,10,30.02,29.88,20,6,20,0.00
2012-2-24,71,61,48,0,0,0,20,13,8,30.19,30.02,24,9,24,0.00
2012-2-25,78,63,46,0,0,0,39,23,11,30.04,29.87,24,9,24,0.00
2012-2-26,63,52,37,0,0,0,40,17,4,30.00,29.75,20,8,20,0.00
2012-2-27,56,46,39,0,0,0,82,58,33,29.77,29.66,31,17,31,0.00
2012-2-28,58,45,36,0,0,0,68,47,21,30.11,29.74,30,15,30,0.00
2012-2-29,61,49,39,0,0,0,61,44,25,30.10,29.91,45,22,45,0.00
2012-3-1,62,50,39,0,0,0,62,39,20,30.04,29.81,37,18,40,0.00
2012-3-2,57,45,35,0,0,0,64,21,6,30.35,30.04,22,9,22,0.00
2012-3-3,66,48,29,0,0,0,28,18,8,30.41,30.28,14,6,14,0.00
2012-3-4,41,37,34,0,0,0,36,32,26,30.30,30.26,17,11,17,0.00
2012-3-5,80,66,39,0,0,0,35,17,8,30.10,29.86,21,9,21,0.00
2012-3-6,68,54,42,0,0,0,45,27,14,29.86,29.55,47,20,53,0.00
2012-3-7,57,44,34,0,0,0,22,15,9,30.17,29.81,23,7,28,0.00
2012-3-8,67,52,33,0,0,0,29,14,6,30.36,30.17,20,7,20,0.00
2012-3-9,73,54,32,0,0,0,27,14,6,30.36,30.05,14,6,15,0.00
2012-3-10,79,58,37,0,0,0,32,17,7,30.05,29.83,20,8,24,0.00
2012-3-12,73,61,0,0,0,0,57,34,18,29.96,29.85,28,13,28,0.00
2012-3-13,72,58,48,0,0,0,62,39,14,29.95,29.85,33,18,33,0.00
2012-3-14,76,61,49,0,0,0,60,37,16,30.04,29.92,31,17,31,0.00
2012-3-15,76,63,48,0,0,0,64,39,21,30.08,29.92,29,10,30,0.00
2012-3-16,75,63,53,0,0,0,69,39,18,29.94,29.72,37,17,41,0.00
2012-3-17,54,46,36,0,0,0,80,66,50,29.75,29.48,41,25,43,0.00
2012-3-18,56,43,35,0,0,0,78,46,16,29.71,29.49,35,21,40,0.00
2012-3-19,58,45,30,0,0,0,59,33,17,29.99,29.70,32,9,32,0.00
2012-3-20,66,52,31,0,0,0,68,33,14,30.15,29.99,17,5,18,0.00
2012-3-21,78,60,40,0,0,0,52,29,14,30.13,29.92,14,6,14,0.00
2012-3-22,83,67,49,0,0,0,52,28,11,29.95,29.77,29,9,29,0.00
2012-3-23,74,63,53,0,0,0,58,29,10,29.96,29.82,30,12,30,0.00
2012-3-24,74,60,45,0,0,0,50,25,11,29.94,29.79,25,10,25,0.00
2012-3-25,69,52,40,0,0,0,81,51,17,29.85,29.65,43,14,43,0.00
2012-3-26,62,51,40,0,0,0,76,50,27,30.03,29.83,30,15,31,0.00
2012-3-27,70,56,42,0,0,0,71,39,12,30.02,29.90,28,13,31,0.00
2012-3-28,73,60,49,0,0,0,50,36,22,29.98,29.88,31,16,31,0.00
2012-3-29,76,61,43,0,0,0,65,39,20,30.04,29.88,21,6,21,0.00
2012-3-30,83,67,49,0,0,0,60,35,16,30.00,29.83,23,8,23,0.00
2012-3-31,75,61,48,0,0,0,63,42,16,29.88,29.76,44,21,44,0.00
2012-4-1,68,56,44,0,0,0,50,25,10,30.05,29.80,33,9,35,0.00
2012-4-2,70,56,36,0,0,0,34,18,10,30.10,29.92,20,7,20,0.00
2012-4-3,78,62,41,0,0,0,31,19,10,30.04,29.85,23,7,24,0.00
2012-4-4,62,61,56,0,0,0,45,33,29,29.91,29.86,29,20,29,0.00
2012-4-5,62,62,62,0,0,0,33,33,33,29.87,29.87,22,22,28,0.00
2012-4-6,62,62,62,0,0,0,33,33,33,29.87,29.87,22,22,28,0.00
2012-4-7,62,62,62,0,0,0,33,33,33,29.87,29.87,22,22,28,0.00
2012-4-8,62,62,62,0,0,0,33,33,33,29.87,29.87,22,22,28,0.00
2012-4-9,62,62,62,0,0,0,33,33,33,29.87,29.87,22,22,28,0.00
2012-4-10,62,62,62,0,0,0,33,33,33,29.87,29.87,22,22,28,0.00
2012-4-11,62,62,62,0,0,0,33,33,33,29.87,29.87,22,22,28,0.00
2012-4-12,68,60,48,0,0,0,71,38,18,29.96,29.87,33,21,35,0.00
2012-4-13,58,47,41,0,0,0,88,65,36,29.94,29.55,36,18,38,0.00
2012-4-14,64,51,41,0,0,0,67,42,25,30.00,29.56,24,10,24,0.00
2012-4-15,74,58,39,0,0,0,75,39,16,30.13,30.00,18,7,20,0.00
2012-4-16,74,65,45,0,0,0,69,32,17,30.19,30.10,16,5,16,0.00
2012-4-17,74,74,74,0,0,0,17,17,17,30.16,30.16,5,5,5,0.00
2012-4-18,74,74,74,0,0,0,17,17,17,30.16,30.16,5,5,5,0.00
2012-5-31,103,94,74,0,0,0,30,11,6,29.96,29.79,17,6,17,0.00
2012-6-1,96,82,75,0,0,0,27,20,13,29.85,29.81,16,8,17,0.00
2012-9-26,91,83,69,0,0,0,23,16,12,29.92,29.85,22,5,22,0.00
2012-9-27,94,77,59,0,0,0,33,21,13,30.00,29.88,14,5,14,0.00
2012-9-28,95,79,65,0,0,0,40,24,14,29.99,29.86,13,4,13,0.00
2012-9-29,96,79,62,0,0,0,40,22,11,30.07,29.95,12,4,12,0.00
2012-9-30,99,80,61,0,0,0,31,18,8,30.11,30.00,14,4,14,0.00
2012-10-1,100,83,60,0,0,0,26,14,8,30.10,29.94,10,4,10,0.00
2012-10-2,101,82,62,0,0,0,27,15,7,29.99,29.84,17,5,17,0.00
2012-10-3,98,83,72,0,0,0,29,19,9,29.96,29.88,39,18,39,0.00
2012-10-4,94,79,67,0,0,0,29,20,12,30.04,29.91,29,11,29,0.00
2012-10-5,91,76,61,0,0,0,37,24,13,30.05,29.89,18,6,18,0.00
2012-10-6,89,75,62,0,0,0,38,25,9,29.97,29.82,20,7,21,0.00
2012-10-7,88,72,56,0,0,0,48,28,10,29.96,29.84,16,6,16,0.00
2012-10-8,87,72,59,0,0,0,49,26,6,29.95,29.84,26,12,26,0.00
2012-10-9,82,70,57,0,0,0,55,34,13,29.96,29.86,24,11,26,0.00
2012-10-10,80,67,58,0,0,0,57,37,17,29.97,29.82,21,10,23,0.00
2012-10-11,72,61,54,0,0,0,59,43,24,29.90,29.79,30,12,32,0.00
2012-10-12,73,60,51,0,0,0,70,49,28,30.12,29.89,21,10,21,0.00
2012-10-13,78,63,46,0,0,0,77,45,25,30.23,30.10,14,4,14,0.00
2012-10-14,85,67,50,0,0,0,57,33,15,30.22,30.06,15,5,15,0.00
2012-10-15,88,69,52,0,0,0,45,27,13,30.08,29.92,12,4,12,0.00
2012-10-16,91,72,54,0,0,0,41,24,12,29.98,29.79,12,5,13,0.00
2012-10-17,89,75,56,0,0,0,50,25,13,30.00,29.86,16,5,16,0.00
2012-10-18,88,70,52,0,0,0,35,18,6,30.10,30.00,14,5,14,0.00
2012-10-19,89,71,52,0,0,0,36,18,8,30.05,29.86,9,4,9,0.00
2012-10-20,88,75,62,0,0,0,65,35,16,29.84,29.65,36,18,38,0.00
2012-10-21,82,67,58,0,0,0,76,44,19,29.78,29.68,37,21,38,0.00
2012-10-22,73,61,54,0,0,0,73,54,28,29.88,29.75,40,22,40,0.00
2012-10-23,71,58,49,0,0,0,74,38,17,29.88,29.78,37,21,38,0.00
2012-10-24,74,59,46,0,0,0,49,32,13,30.06,29.85,29,9,30,0.00
2012-10-25,73,56,41,0,0,0,52,30,15,30.15,30.05,18,5,18,0.00
2012-10-26,69,59,46,0,0,0,29,18,8,30.27,30.10,21,8,21,0.00
2012-10-27,78,58,39,0,0,0,28,18,11,30.11,29.97,15,5,15,0.00
2012-10-28,81,62,43,0,0,0,35,21,12,30.08,29.98,9,4,10,0.00
2012-10-29,82,65,49,0,0,0,26,17,10,30.15,30.04,9,3,9,0.00
2012-10-30,81,64,47,0,0,0,29,17,9,30.12,29.98,9,4,9,0.00
2012-10-31,84,66,48,0,0,0,28,17,8,30.06,29.92,20,7,20,0.00
2012-11-1,79,69,58,0,0,0,41,20,10,29.96,29.86,25,14,25,0.00
2012-11-2,78,62,46,0,0,0,64,33,15,30.02,29.92,16,5,18,0.00
2012-11-3,79,61,44,0,0,0,41,24,11,30.14,30.00,12,4,12,0.00
2012-11-4,82,62,43,0,0,0,33,20,10,30.24,30.14,13,5,14,0.00
2012-11-5,84,66,48,0,0,0,31,20,11,30.24,30.11,16,6,16,0.00
2012-11-6,85,67,49,0,0,0,39,23,13,30.18,30.04,9,4,9,0.00
2012-11-7,85,70,53,0,0,0,39,24,11,30.06,29.85,25,10,26,0.00
2012-11-8,73,60,52,0,0,0,64,46,29,29.87,29.70,38,22,38,0.00
2012-11-9,58,50,43,0,0,0,64,36,22,29.85,29.71,41,18,41,0.00
2012-11-10,58,45,32,0,0,0,47,32,17,30.13,29.83,28,13,28,0.00
2012-11-11,54,40,26,0,0,0,53,30,15,30.39,30.13,20,7,21,0.00
2012-11-12,30,29,28,0,0,0,29,27,25,30.37,30.36,13,10,14,0.00
2012-11-13,63,50,29,0,0,0,28,15,9,30.27,30.13,14,6,15,0.00
2012-11-14,64,46,30,0,0,0,29,18,10,30.21,30.08,16,6,17,0.00
2012-11-15,65,52,41,0,0,0,40,19,12,30.16,30.05,12,4,12,0.00
2012-11-16,66,57,48,0,0,0,62,46,28,30.10,30.00,18,7,20,0.00
2012-11-17,66,57,49,0,0,0,77,62,45,30.07,29.96,26,13,29,0.00
2012-11-18,68,57,48,0,0,0,80,55,28,30.11,29.99,31,16,33,0.00
2012-11-19,68,56,43,0,0,0,81,50,26,30.24,30.10,23,7,23,0.00
2012-11-20,72,55,38,0,0,0,75,43,19,30.20,30.02,15,6,15,0.00
2012-11-21,71,59,47,0,0,0,60,36,20,30.06,29.95,21,8,23,0.00
2012-11-22,71,54,39,0,0,0,70,42,22,30.24,30.06,14,5,15,0.00
2012-11-23,74,54,39,0,0,0,52,31,15,30.30,30.19,14,5,14,0.00
2012-11-24,72,53,37,0,0,0,43,27,14,30.22,30.00,15,6,17,0.00
2012-11-25,72,52,37,0,0,0,41,27,14,30.00,29.87,15,6,15,0.00
2012-11-26,70,52,36,0,0,0,45,27,13,30.15,29.98,15,6,15,0.00
2012-11-27,68,53,37,0,0,0,39,25,15,30.20,30.08,15,6,15,0.00
2012-11-28,72,56,40,0,0,0,73,39,18,30.13,29.99,30,12,32,0.00
2012-11-29,67,58,52,0,0,0,82,66,42,30.13,30.03,35,18,35,0.00
2012-11-30,65,58,51,0,0,0,83,65,46,30.07,29.96,40,20,41,0.00
2012-12-1,54,54,54,0,0,0,71,71,71,30.02,30.02,21,21,29,0.00
2012-12-3,70,60,46,0,0,0,68,49,32,30.20,30.05,17,6,17,0.00
2012-12-4,66,54,42,0,0,0,77,57,39,30.29,30.18,12,4,13,0.00
2012-12-5,65,53,42,0,0,0,74,53,30,30.19,30.00,16,5,16,0.00
2012-12-6,72,53,39,0,0,0,70,50,28,30.02,29.89,15,5,15,0.00
2012-12-7,70,52,38,0,0,0,82,47,21,30.07,29.97,15,6,15,0.00
2012-12-8,65,48,36,0,0,0,65,40,21,30.02,29.90,20,6,20,0.00
2012-12-9,66,50,34,0,0,0,54,32,16,30.21,29.98,16,7,17,0.00
2012-12-10,65,49,35,0,0,0,45,31,18,30.26,30.10,15,7,16,0.00
2012-12-11,66,50,33,0,0,0,51,33,19,30.12,29.83,25,9,29,0.00
2012-12-12,62,53,48,0,0,0,69,49,33,29.83,29.76,35,18,36,0.00
2012-12-13,54,47,44,0,0,0,90,77,53,29.79,29.69,12,5,13,0.00
2012-12-14,51,43,38,0,0,0,87,61,37,29.87,29.66,31,14,31,0.00
2012-12-15,53,43,32,0,0,0,70,49,32,29.99,29.84,18,9,20,0.00
2012-12-16,54,44,31,0,0,0,81,58,42,30.09,29.97,22,7,22,0.00
2012-12-17,67,51,41,0,0,0,85,64,28,30.04,29.84,40,13,40,0.00
2012-12-18,56,47,38,0,0,0,83,53,23,29.94,29.65,39,18,39,0.00
2012-12-19,49,37,25,0,0,0,51,30,12,30.36,29.94,22,8,22,0.00
2012-12-20,46,32,19,0,0,0,58,37,17,30.35,30.19,17,3,17,0.00
2012-12-21,24,23,22,0,0,0,58,54,48,30.20,30.16,6,1,7,0.00
2012-12-22,57,50,44,0,0,0,80,47,17,30.08,29.98,28,15,29,0.00
2012-12-23,57,48,42,0,0,0,84,63,34,30.06,29.94,38,19,39,0.00
2012-12-24,65,52,45,0,0,0,79,45,14,30.13,29.87,35,15,37,0.00
2012-12-25,51,44,35,0,0,0,37,25,15,30.16,29.88,22,10,22,0.00
2012-12-26,56,47,40,0,0,0,77,45,25,29.89,29.76,33,15,33,0.00
2012-12-27,52,40,28,0,0,0,80,47,24,30.10,29.86,17,6,17,0.00
2012-12-28,49,37,21,0,0,0,67,41,24,30.20,30.07,17,4,17,0.00
2012-12-29,50,41,32,0,0,0,86,48,26,30.07,29.94,17,4,18,0.00
2012-12-30,46,36,28,0,0,0,91,67,42,30.05,29.89,16,6,16,0.00
2012-12-31,48,35,25,0,0,0,60,39,20,30.24,30.05,16,4,17,0.00